Ninde, Virginia
Current Conditions -  °F | °C
As of 4:56 PM on Monday 20 Oct 2014 (Local Time) from KNYG Reporting Station
Broken Clouds Broken Clouds  
Wind Chill: 67°   Ceiling: 22000
Heat Index: 67°   Visibility: 10mi
Dew Point: 46°   Wind: 14mph
Humidity: 47%   Direction: 210°SSW
Pressure: 29.95"   Gusts: 22mph
Location:  38.27°N, 77.06°W
Report Text: KNYG 202056Z 21012G19KT 10SM SCT160 BKN220 19/08 A2995 RMK AO2 SLP144 T01940078 56014 $
Loading
Personal Weather Stations






























Interactive Weather Map New forecast layout! Learn more

10-Day Weather Forecast

Advertisements
Track Severe Weather on mobile